Current Weather

Corona Muni

Corona, California (KAJO)

Report from: Sunday, February 25, 2024 1:56 PM PST
Current time: Sunday, February 25, 2024 2:32 PM PST

Nearby weather – Weather history – Daily summaries
Weather forecast

Temperature19.4°C (66.9°F)
Dew point10.0°C (50.0°F)
Winds 11 kts (5.7 m/s, 12.7 mph) West (280°)
Visibility10 mi. (16.1 km)
Clouds Sky clear
Altimeter30.04 in.Hg (1017 mB)
Relative humidity55 %
Density altitude577 ft. (176 m)
Sea-level pressure101.7 kPa (1017 mB, 30.02 in.Hg)
Remarks Fully automated report
System requires maintenance
Automated weather observing station with precipitation discriminator
Precipitation sensor not operating
Flight conditions Visual Meteorological Conditions
Raw dataKAJO 252156Z AUTO 28011KT 10SM CLR 19/10 A3004 RMK AO2 SLP166 T01940100 PNO $
An error has occurred. This application may no longer respond until reloaded. Reload 🗙